Time;durP1;ratioP1;P1;durP2;ratioP2;P2;SDS_P1;SDS_P2;PMS_P1;PMS_P2;Temp;Humidity;BMP_temperature;BMP_pressure;BME280_temperature;BME280_humidity;BME280_pressure;Samples;Min_cycle;Max_cycle;Signal;HPM_P1;HPM_P2
2023/03/16 00:00:56;;;;;;;18.90;10.20;;;;;;;7.47;nan;99997.28;4979945;28;20565;-72
2023/03/16 00:03:22;;;;;;;18.97;9.73;;;;;;;7.43;nan;99996.41;4987094;28;20062;-72
2023/03/16 00:05:52;;;;;;;18.50;10.43;;;;;;;7.39;nan;99994.66;5008951;28;20018;-72
2023/03/16 00:08:18;;;;;;;17.90;9.70;;;;;;;7.37;nan;99991.16;4996935;28;20121;-72
2023/03/16 00:10:45;;;;;;;16.48;9.25;;;;;;;7.36;nan;99991.13;4997620;28;20153;-72
2023/03/16 00:13:12;;;;;;;22.70;9.27;;;;;;;7.35;nan;99979.75;4997250;28;20406;-72
2023/03/16 00:15:38;;;;;;;18.80;9.13;;;;;;;7.37;nan;99990.25;4999515;28;20026;-72
2023/03/16 00:18:03;;;;;;;17.40;9.97;;;;;;;7.35;nan;99982.38;4996958;28;20122;-72
2023/03/16 00:20:28;;;;;;;19.40;10.07;;;;;;;7.36;nan;99984.16;5006099;28;20037;-72
2023/03/16 00:22:55;;;;;;;19.37;9.87;;;;;;;7.35;nan;99979.75;5000616;28;20038;-71
2023/03/16 00:25:20;;;;;;;18.45;10.18;;;;;;;7.35;nan;99977.16;5000869;28;20101;-72
2023/03/16 00:27:46;;;;;;;21.03;10.37;;;;;;;7.33;nan;99973.66;4997302;28;20059;-72
2023/03/16 00:30:12;;;;;;;18.90;10.45;;;;;;;7.31;nan;99970.16;4995858;28;20110;-72
2023/03/16 00:32:37;;;;;;;18.47;10.27;;;;;;;7.29;nan;99971.88;4991635;28;20062;-72
2023/03/16 00:35:04;;;;;;;15.83;9.53;;;;;;;7.30;nan;99963.16;4994079;28;20380;-72
2023/03/16 00:37:31;;;;;;;17.00;8.90;;;;;;;7.32;nan;99956.19;4983003;28;20038;-72
2023/03/16 00:39:57;;;;;;;17.10;9.05;;;;;;;7.33;nan;99958.81;4987635;28;20034;-72
2023/03/16 00:42:26;;;;;;;16.67;8.02;;;;;;;7.32;nan;99956.19;5001951;28;20056;-72
2023/03/16 00:44:56;;;;;;;30.40;12.00;;;;;;;7.32;nan;99949.22;5000687;28;20041;-72
2023/03/16 00:47:27;;;;;;;44.90;17.83;;;;;;;7.33;nan;99955.31;5000384;28;20101;-72
2023/03/16 00:49:52;;;;;;;27.73;12.18;;;;;;;7.32;nan;99946.59;5007390;28;20022;-72
2023/03/16 00:52:18;;;;;;;24.10;10.45;;;;;;;7.31;nan;99946.56;5005124;28;20041;-72
2023/03/16 00:54:45;;;;;;;16.77;8.10;;;;;;;7.28;nan;99933.47;4992437;28;20030;-72
2023/03/16 00:57:13;;;;;;;14.20;6.93;;;;;;;7.26;nan;99935.22;4987193;28;20412;-72
2023/03/16 00:59:39;;;;;;;18.52;7.72;;;;;;;7.23;nan;99928.22;5000151;28;20038;-72
2023/03/16 01:02:06;;;;;;;17.93;7.30;;;;;;;7.20;nan;99932.56;5000235;28;20069;-72
2023/03/16 01:04:33;;;;;;;16.50;7.43;;;;;;;7.15;nan;99917.72;4993695;28;20105;-72
2023/03/16 01:06:59;;;;;;;21.00;9.15;;;;;;;7.11;nan;99918.56;4999897;28;20031;-72
2023/03/16 01:09:24;;;;;;;21.38;8.00;;;;;;;7.08;nan;99908.06;4999999;28;20029;-72
2023/03/16 01:11:53;;;;;;;15.57;7.13;;;;;;;7.06;nan;99911.56;5000206;28;20033;-72
2023/03/16 01:14:20;;;;;;;14.75;7.03;;;;;;;7.03;nan;99909.78;5000072;28;20113;-72
2023/03/16 01:16:45;;;;;;;16.77;7.50;;;;;;;6.99;nan;99914.16;5003911;28;20070;-72
2023/03/16 01:19:12;;;;;;;17.20;7.67;;;;;;;6.96;nan;99911.50;5003627;28;20052;-72
2023/03/16 01:21:41;;;;;;;15.57;7.20;;;;;;;6.93;nan;99905.41;5004246;28;20584;-72
2023/03/16 01:24:07;;;;;;;21.30;8.70;;;;;;;6.88;nan;99908.88;4999613;28;20387;-72
2023/03/16 01:26:34;;;;;;;18.00;7.30;;;;;;;6.85;nan;99900.97;4998327;28;20022;-72
2023/03/16 01:28:59;;;;;;;15.52;6.63;;;;;;;6.82;nan;99900.09;4993320;28;20034;-72
2023/03/16 01:31:25;;;;;;;14.77;6.57;;;;;;;6.78;nan;99891.34;4998518;28;20156;-72
2023/03/16 01:33:51;;;;;;;12.13;6.10;;;;;;;6.75;nan;99891.34;4998184;28;20380;-72
2023/03/16 01:36:18;;;;;;;14.13;6.23;;;;;;;6.73;nan;99880.00;4999447;28;20031;-72
2023/03/16 01:38:43;;;;;;;14.18;6.45;;;;;;;6.71;nan;99889.56;4999458;28;20096;-72
2023/03/16 01:41:10;;;;;;;15.00;6.97;;;;;;;6.67;nan;99887.81;5001689;28;20031;-72
2023/03/16 01:43:38;;;;;;;11.50;5.87;;;;;;;6.63;nan;99893.88;4999244;28;20069;-72
2023/03/16 01:46:03;;;;;;;12.57;5.75;;;;;;;6.61;nan;99892.13;4999572;28;20033;-72
2023/03/16 01:48:50;;;;;;;12.03;6.17;;;;;;;6.57;nan;99887.75;4999205;28;20117;-75
2023/03/16 01:51:44;;;;;;;14.15;5.88;;;;;;;6.54;nan;99879.03;5004737;28;20038;-72
2023/03/16 01:54:24;;;;;;;13.80;6.20;;;;;;;6.54;nan;99865.94;4999291;28;20034;-72
2023/03/16 01:56:54;;;;;;;12.85;6.45;;;;;;;6.51;nan;99865.91;5000208;28;20028;-72
2023/03/16 01:59:25;;;;;;;14.60;6.70;;;;;;;6.46;nan;99863.28;5006421;28;20030;-72
2023/03/16 02:01:51;;;;;;;14.93;6.43;;;;;;;6.44;nan;99865.88;4998910;28;20058;-72
2023/03/16 02:04:21;;;;;;;14.48;6.93;;;;;;;6.42;nan;99867.59;5000241;28;20034;-72
2023/03/16 02:06:47;;;;;;;14.75;6.93;;;;;;;6.40;nan;99863.25;4986510;28;20115;-72
2023/03/16 02:09:14;;;;;;;16.13;6.93;;;;;;;6.38;nan;99864.94;4998721;28;20508;-72
2023/03/16 02:11:40;;;;;;;15.25;6.07;;;;;;;6.36;nan;99856.22;4999193;28;20030;-72
2023/03/16 02:14:09;;;;;;;19.40;6.50;;;;;;;6.32;nan;99853.59;4998908;28;20034;-72
2023/03/16 02:16:36;;;;;;;14.52;7.07;;;;;;;6.32;nan;99848.34;5009966;28;20076;-74
2023/03/16 02:19:04;;;;;;;13.15;6.40;;;;;;;6.29;nan;99845.72;5000243;28;20034;-73
2023/03/16 02:21:47;;;;;;;14.52;6.38;;;;;;;6.25;nan;99837.84;4998921;28;20037;-73
2023/03/16 02:24:13;;;;;;;13.82;6.32;;;;;;;6.23;nan;99839.56;4998671;28;20038;-74
2023/03/16 02:26:53;;;;;;;12.40;5.80;;;;;;;6.17;nan;99835.19;4998757;28;20026;-72
2023/03/16 02:29:46;;;;;;;12.95;5.70;;;;;;;6.14;nan;99835.16;4997426;28;20048;-74
2023/03/16 02:32:13;;;;;;;14.40;6.00;;;;;;;6.11;nan;99830.78;4994519;28;20030;-74
2023/03/16 02:34:38;;;;;;;13.88;6.20;;;;;;;6.09;nan;99829.00;4998644;28;20062;-73
2023/03/16 02:37:06;;;;;;;16.08;6.45;;;;;;;6.07;nan;99822.91;4998088;28;20125;-74
2023/03/16 02:39:33;;;;;;;14.53;6.40;;;;;;;6.03;nan;99817.66;4998487;28;20029;-74
2023/03/16 02:41:59;;;;;;;13.98;6.85;;;;;;;6.01;nan;99808.94;4999972;28;20026;-73
2023/03/16 02:44:35;;;;;;;13.52;6.53;;;;;;;5.99;nan;99805.41;4998218;28;20034;-74
2023/03/16 02:47:06;;;;;;;14.23;6.55;;;;;;;5.96;nan;99797.53;4994338;28;20031;-74
2023/03/16 02:49:41;;;;;;;12.63;6.03;;;;;;;5.93;nan;99792.31;4987451;28;20474;-74
2023/03/16 02:52:07;;;;;;;16.63;6.50;;;;;;;5.91;nan;99786.19;4998311;28;20105;-73
2023/03/16 02:54:33;;;;;;;16.70;6.80;;;;;;;5.88;nan;99786.13;4998133;28;20034;-74
2023/03/16 02:56:58;;;;;;;13.45;6.22;;;;;;;5.84;nan;99789.59;5000270;28;20040;-74
2023/03/16 02:59:24;;;;;;;12.17;6.73;;;;;;;5.83;nan;99793.06;5005410;28;20450;-74
2023/03/16 03:01:50;;;;;;;18.07;6.17;;;;;;;5.80;nan;99783.50;4997837;28;20050;-74
2023/03/16 03:04:16;;;;;;;13.05;6.22;;;;;;;5.78;nan;99795.66;4999022;28;20434;-73
2023/03/16 03:06:41;;;;;;;11.27;5.70;;;;;;;5.77;nan;99790.44;4998253;28;20030;-73
2023/03/16 03:09:07;;;;;;;13.97;5.30;;;;;;;5.75;nan;99785.19;4997818;28;20022;-73
2023/03/16 03:11:32;;;;;;;14.68;6.25;;;;;;;5.77;nan;99773.00;4997566;28;20038;-73
2023/03/16 03:13:58;;;;;;;12.93;5.43;;;;;;;5.80;nan;99766.94;4998010;28;20038;-73
2023/03/16 03:16:23;;;;;;;12.40;5.50;;;;;;;5.86;nan;99769.56;5008914;28;20031;-73
2023/03/16 03:18:51;;;;;;;9.18;4.50;;;;;;;5.91;nan;99767.91;4998381;28;20111;-73
2023/03/16 03:21:17;;;;;;;9.70;4.95;;;;;;;5.93;nan;99758.31;4998087;28;20057;-73
2023/03/16 03:23:45;;;;;;;10.13;5.07;;;;;;;5.93;nan;99762.66;4997563;28;20030;-73
2023/03/16 03:26:14;;;;;;;10.82;5.10;;;;;;;5.95;nan;99755.72;4997525;28;20030;-73
2023/03/16 03:28:39;;;;;;;9.75;4.50;;;;;;;5.94;nan;99754.84;4997233;28;20395;-73
2023/03/16 03:31:05;;;;;;;12.17;4.63;;;;;;;5.93;nan;99755.72;4989139;28;20034;-73
2023/03/16 03:33:32;;;;;;;10.50;4.90;;;;;;;5.92;nan;99751.34;4997779;28;20030;-73
2023/03/16 03:35:58;;;;;;;10.13;4.65;;;;;;;5.90;nan;99753.06;4995881;28;20038;-73
2023/03/16 03:38:25;;;;;;;11.10;5.07;;;;;;;5.89;nan;99756.53;4997199;28;20041;-73
2023/03/16 03:40:51;;;;;;;11.45;4.75;;;;;;;5.88;nan;99754.78;4999672;28;20524;-73
2023/03/16 03:43:17;;;;;;;11.90;4.78;;;;;;;5.86;nan;99751.28;4997066;28;20121;-73
2023/03/16 03:45:42;;;;;;;13.37;5.07;;;;;;;5.83;nan;99754.78;4978013;28;20078;-73
2023/03/16 03:48:08;;;;;;;12.67;5.50;;;;;;;5.83;nan;99746.03;4977938;28;20058;-73
2023/03/16 03:50:33;;;;;;;11.43;5.07;;;;;;;5.82;nan;99750.41;4996467;28;20272;-73
2023/03/16 03:52:58;;;;;;;11.83;5.10;;;;;;;5.79;nan;99741.66;4996618;28;20076;-73
2023/03/16 03:55:24;;;;;;;10.97;4.43;;;;;;;5.78;nan;99743.38;4996846;28;20022;-74
2023/03/16 03:57:49;;;;;;;9.87;5.03;;;;;;;5.76;nan;99739.91;5006562;28;20033;-74
2023/03/16 04:00:19;;;;;;;9.15;4.40;;;;;;;5.74;nan;99739.91;4997374;28;20084;-73
2023/03/16 04:02:44;;;;;;;11.68;5.35;;;;;;;5.74;nan;99746.84;4996273;28;20073;-73
2023/03/16 04:05:10;;;;;;;14.13;5.10;;;;;;;5.75;nan;99736.44;4999651;28;20132;-74
2023/03/16 04:07:35;;;;;;;11.20;5.00;;;;;;;5.76;nan;99739.91;4996942;28;20022;-73
2023/03/16 04:10:00;;;;;;;11.87;4.70;;;;;;;5.82;nan;99739.97;4997024;28;20084;-73
2023/03/16 04:12:26;;;;;;;9.17;4.10;;;;;;;5.90;nan;99734.75;4997015;28;20033;-74
2023/03/16 04:14:51;;;;;;;8.38;3.60;;;;;;;5.95;nan;99738.31;5001854;28;20030;-73
2023/03/16 04:17:17;;;;;;;7.90;3.77;;;;;;;5.99;nan;99731.34;5003193;28;20034;-74
2023/03/16 04:19:42;;;;;;;8.43;3.70;;;;;;;5.99;nan;99726.09;4997726;28;20099;-73
2023/03/16 04:22:08;;;;;;;8.07;3.70;;;;;;;5.98;nan;99738.31;4996918;28;20061;-73
2023/03/16 04:24:34;;;;;;;9.90;4.10;;;;;;;5.97;nan;99728.72;4996945;28;20284;-74
2023/03/16 04:27:01;;;;;;;9.10;3.93;;;;;;;5.97;nan;99730.44;4997031;28;20475;-73
2023/03/16 04:29:27;;;;;;;8.13;3.70;;;;;;;5.95;nan;99735.69;4996143;28;20272;-73
2023/03/16 04:31:52;;;;;;;7.50;3.05;;;;;;;5.92;nan;99738.28;4996804;28;20619;-73
2023/03/16 04:34:23;;;;;;;12.40;3.77;;;;;;;5.91;nan;99733.03;4997189;28;20034;-73
2023/03/16 04:36:52;;;;;;;8.57;3.67;;;;;;;5.88;nan;99733.88;4996480;28;20035;-73
2023/03/16 04:39:21;;;;;;;8.85;3.97;;;;;;;5.86;nan;99725.16;4996633;28;20399;-73
2023/03/16 04:41:46;;;;;;;7.82;3.50;;;;;;;5.84;nan;99726.88;4995161;28;20626;-73
2023/03/16 04:44:12;;;;;;;9.70;4.40;;;;;;;5.80;nan;99736.47;4996816;28;20497;-73
2023/03/16 04:46:38;;;;;;;8.77;4.38;;;;;;;5.80;nan;99735.56;4996623;28;20048;-73
2023/03/16 04:49:03;;;;;;;8.83;4.37;;;;;;;5.79;nan;99739.94;4997409;28;20030;-73
2023/03/16 04:51:29;;;;;;;9.37;4.13;;;;;;;5.78;nan;99737.31;5002185;28;20057;-73
2023/03/16 04:53:54;;;;;;;8.00;3.72;;;;;;;5.78;nan;99735.56;4996456;28;20036;-73
2023/03/16 04:56:20;;;;;;;7.17;3.47;;;;;;;5.78;nan;99734.69;4996706;28;20073;-74
2023/03/16 04:58:48;;;;;;;9.20;3.57;;;;;;;5.77;nan;99732.94;5005612;28;20399;-73
2023/03/16 05:01:13;;;;;;;8.67;3.63;;;;;;;5.77;nan;99730.34;4996668;28;20380;-73
2023/03/16 05:03:39;;;;;;;6.65;3.03;;;;;;;5.74;nan;99721.63;4998384;28;20050;-73
2023/03/16 05:06:05;;;;;;;8.23;3.27;;;;;;;5.74;nan;99726.84;5004434;28;20081;-73
2023/03/16 05:08:30;;;;;;;10.18;3.50;;;;;;;5.71;nan;99724.22;4998905;28;20045;-73
2023/03/16 05:10:57;;;;;;;8.57;3.13;;;;;;;5.70;nan;99719.84;5000137;28;20038;-73
2023/03/16 05:13:22;;;;;;;9.18;2.65;;;;;;;5.69;nan;99710.25;4999112;28;20026;-73
2023/03/16 05:15:48;;;;;;;7.30;2.43;;;;;;;5.76;nan;99711.16;5011010;28;20065;-73
2023/03/16 05:18:13;;;;;;;7.28;2.35;;;;;;;5.80;nan;99710.34;5000257;28;20037;-73
2023/03/16 05:20:40;;;;;;;6.97;1.90;;;;;;;5.83;nan;99712.97;5001137;28;20038;-73
2023/03/16 05:23:07;;;;;;;5.38;1.45;;;;;;;5.90;nan;99706.00;5000161;28;20504;-73
2023/03/16 05:25:33;;;;;;;7.50;1.10;;;;;;;6.02;nan;99710.47;4998814;28;20391;-73
2023/03/16 05:27:58;;;;;;;3.60;0.80;;;;;;;6.17;nan;99709.72;4999914;28;20033;-73
2023/03/16 05:30:23;;;;;;;4.85;0.80;;;;;;;6.32;nan;99707.13;4992579;28;20117;-73
2023/03/16 05:32:50;;;;;;;4.47;0.63;;;;;;;6.49;nan;99690.66;4998788;28;20046;-73
2023/03/16 05:35:15;;;;;;;5.68;0.70;;;;;;;6.61;nan;99695.03;4997358;28;20479;-73
2023/03/16 05:37:41;;;;;;;6.63;0.90;;;;;;;6.71;nan;99696.81;4980032;28;20061;-73
2023/03/16 05:40:15;;;;;;;5.38;0.43;;;;;;;6.84;nan;99699.47;4980368;28;20033;-74
2023/03/16 05:42:45;;;;;;;9.43;0.63;;;;;;;6.95;nan;99694.25;5001758;28;20034;-73
2023/03/16 05:45:12;;;;;;;3.90;0.52;;;;;;;7.06;nan;99697.75;4998454;28;20042;-73
2023/03/16 05:47:37;;;;;;;5.00;0.50;;;;;;;7.18;nan;99702.13;4999386;28;20482;-73
2023/03/16 05:50:04;;;;;;;5.07;0.50;;;;;;;7.27;nan;99702.13;5005286;28;20406;-73
2023/03/16 05:52:30;;;;;;;4.73;0.50;;;;;;;7.42;nan;99696.03;4999462;28;20268;-73
2023/03/16 05:54:55;;;;;;;4.07;0.40;;;;;;;7.59;nan;99695.13;4999153;28;20037;-71
2023/03/16 05:57:21;;;;;;;5.40;0.50;;;;;;;7.71;nan;99697.72;5004763;28;20474;-71
2023/03/16 05:59:47;;;;;;;2.20;0.50;;;;;;;7.82;nan;99696.81;5003084;28;20072;-73
2023/03/16 06:02:12;;;;;;;4.40;0.60;;;;;;;7.92;nan;99695.06;4999204;28;20312;-71
2023/03/16 06:04:38;;;;;;;5.35;0.80;;;;;;;8.00;nan;99690.69;5000323;28;20022;-73
2023/03/16 06:07:03;;;;;;;8.43;0.60;;;;;;;8.09;nan;99689.78;4999518;28;20018;-73
2023/03/16 06:09:44;;;;;;;4.53;0.70;;;;;;;8.15;nan;99690.63;5000303;28;20030;-74
2023/03/16 06:12:10;;;;;;;5.18;0.85;;;;;;;8.26;nan;99680.09;4988937;28;20022;-74
2023/03/16 06:14:35;;;;;;;5.20;0.87;;;;;;;8.33;nan;99681.84;4985255;28;20037;-74
2023/03/16 06:17:01;;;;;;;6.32;0.75;;;;;;;8.38;nan;99688.81;5006770;28;20026;-74
2023/03/16 06:19:26;;;;;;;6.63;0.70;;;;;;;8.48;nan;99690.50;5000452;28;20042;-74
2023/03/16 06:21:52;;;;;;;6.67;0.80;;;;;;;8.57;nan;99687.88;4998887;28;20077;-74
2023/03/16 06:24:17;;;;;;;7.33;0.77;;;;;;;8.68;nan;99686.94;4998946;28;20754;-73
2023/03/16 06:26:43;;;;;;;4.93;0.67;;;;;;;8.74;nan;99687.78;4999307;28;20024;-74
2023/03/16 06:29:08;;;;;;;5.65;0.50;;;;;;;8.81;nan;99687.72;4998313;28;20022;-74
2023/03/16 06:31:34;;;;;;;5.20;0.70;;;;;;;8.88;nan;99684.19;4998674;28;20031;-73
2023/03/16 06:34:00;;;;;;;8.27;0.80;;;;;;;8.93;nan;99684.16;4982303;28;20026;-73
2023/03/16 06:36:25;;;;;;;8.07;0.68;;;;;;;8.96;nan;99687.63;4979278;28;20090;-74
2023/03/16 06:38:50;;;;;;;4.67;0.67;;;;;;;9.03;nan;99689.34;4978878;28;20030;-74
2023/03/16 06:41:16;;;;;;;6.63;0.60;;;;;;;9.08;nan;99686.69;4989152;28;20113;-74
2023/03/16 06:43:41;;;;;;;10.20;0.90;;;;;;;9.13;nan;99682.25;4997456;28;20070;-73
2023/03/16 06:46:07;;;;;;;5.72;0.63;;;;;;;9.22;nan;99683.06;4998775;28;20018;-74
2023/03/16 06:48:32;;;;;;;10.00;1.07;;;;;;;9.30;nan;99678.63;4998701;28;20034;-73
2023/03/16 06:50:58;;;;;;;7.90;0.80;;;;;;;9.37;nan;99679.44;5004558;28;20088;-74
2023/03/16 06:53:23;;;;;;;6.10;0.60;;;;;;;9.45;nan;99681.13;4998980;28;20057;-73
2023/03/16 06:55:48;;;;;;;4.22;0.70;;;;;;;9.52;nan;99681.06;4999027;28;20033;-74
2023/03/16 06:58:14;;;;;;;3.90;0.47;;;;;;;9.56;nan;99688.06;5009301;28;20054;-71
2023/03/16 07:00:39;;;;;;;5.97;0.83;;;;;;;9.63;nan;99681.84;4999234;28;20084;-74
2023/03/16 07:03:04;;;;;;;5.23;0.60;;;;;;;9.71;nan;99666.00;4990304;28;20029;-70
2023/03/16 07:05:30;;;;;;;5.97;0.87;;;;;;;9.80;nan;99686.06;4991663;28;20375;-69
2023/03/16 07:07:56;;;;;;;3.13;0.40;;;;;;;9.89;nan;99673.69;4993650;28;20479;-68
2023/03/16 07:10:22;;;;;;;4.87;0.70;;;;;;;10.02;nan;99677.06;4998291;28;20026;-68
2023/03/16 07:12:47;;;;;;;3.78;0.90;;;;;;;10.12;nan;99687.47;4998037;28;20069;-67
2023/03/16 07:15:13;;;;;;;4.63;0.43;;;;;;;10.22;nan;99686.44;5004220;28;20033;-68
2023/03/16 07:17:39;;;;;;;4.07;0.60;;;;;;;10.43;nan;99695.00;5001457;28;20108;-69
2023/03/16 07:20:09;;;;;;;6.50;0.80;;;;;;;10.70;nan;99685.00;5000716;28;20030;-67
2023/03/16 07:22:34;;;;;;;3.72;0.63;;;;;;;11.00;nan;99698.63;4997435;28;20026;-67
2023/03/16 07:25:00;;;;;;;5.47;0.80;;;;;;;11.45;nan;99668.91;4987002;28;20098;-67
2023/03/16 07:27:25;;;;;;;4.57;0.90;;;;;;;12.62;nan;99665.75;4985695;28;20101;-67
2023/03/16 07:29:51;;;;;;;5.30;1.03;;;;;;;14.19;nan;99645.97;4992967;28;20467;-69
2023/03/16 07:32:17;;;;;;;5.65;0.90;;;;;;;15.98;nan;99640.25;4994334;28;20053;-69
2023/03/16 07:34:42;;;;;;;5.33;0.80;;;;;;;17.25;nan;99638.94;4997901;28;20042;-71
2023/03/16 07:37:08;;;;;;;3.78;0.73;;;;;;;18.28;nan;99632.69;4997480;28;20027;-70
2023/03/16 07:39:35;;;;;;;4.83;1.07;;;;;;;19.09;nan;99627.09;4996131;28;20434;-69
2023/03/16 07:42:00;;;;;;;6.38;1.25;;;;;;;20.06;nan;99626.59;4998341;28;20018;-68
2023/03/16 07:44:26;;;;;;;6.10;1.00;;;;;;;20.57;nan;99625.63;4997160;28;20022;-71
2023/03/16 07:46:52;;;;;;;4.53;0.93;;;;;;;20.97;nan;99608.28;4994032;28;20460;-71
2023/03/16 07:49:17;;;;;;;5.15;1.25;;;;;;;21.43;nan;99627.00;4999520;28;20030;-71
2023/03/16 07:51:42;;;;;;;8.77;1.17;;;;;;;21.72;nan;99620.88;5000884;28;20080;-71
2023/03/16 07:54:08;;;;;;;5.37;1.37;;;;;;;22.06;nan;99619.66;4997552;28;20018;-71
2023/03/16 07:56:33;;;;;;;5.77;1.30;;;;;;;22.42;nan;99619.22;4995899;28;20034;-72
2023/03/16 07:59:00;;;;;;;6.17;1.33;;;;;;;22.59;nan;99623.53;5006355;28;20389;-71
2023/03/16 08:01:26;;;;;;;4.43;1.30;;;;;;;23.05;nan;99606.22;4997239;28;20046;-72
2023/03/16 08:03:52;;;;;;;5.80;1.48;;;;;;;23.69;nan;99610.03;4995065;28;20041;-71
2023/03/16 08:06:17;;;;;;;5.85;1.55;;;;;;;24.74;nan;99612.47;5000557;28;20014;-72
2023/03/16 08:08:43;;;;;;;5.60;1.33;;;;;;;26.20;nan;99617.59;4997265;28;20026;-72
2023/03/16 08:11:08;;;;;;;5.83;1.50;;;;;;;27.05;nan;99596.31;4997329;28;20029;-71
2023/03/16 08:13:34;;;;;;;5.35;1.48;;;;;;;28.12;nan;99594.44;4995884;28;20486;-72
2023/03/16 08:16:00;;;;;;;5.50;1.60;;;;;;;28.74;nan;99580.78;5008302;28;20022;-72
2023/03/16 08:18:29;;;;;;;6.50;1.42;;;;;;;28.70;nan;99590.22;4997331;28;20023;-72
2023/03/16 08:20:55;;;;;;;5.10;1.40;;;;;;;28.80;nan;99588.38;4998584;28;20065;-72
2023/03/16 08:23:23;;;;;;;7.45;1.60;;;;;;;28.68;nan;99584.91;4996588;28;20030;-72
2023/03/16 08:25:53;;;;;;;5.45;1.50;;;;;;;29.11;nan;99580.13;4980296;28;20110;-71
2023/03/16 08:28:20;;;;;;;7.53;1.52;;;;;;;29.81;nan;99570.03;4986225;28;20379;-72
2023/03/16 08:30:51;;;;;;;5.43;1.65;;;;;;;30.23;nan;99569.56;4996150;28;20027;-72
2023/03/16 08:33:16;;;;;;;5.30;1.60;;;;;;;30.54;nan;99582.84;4997106;28;20034;-72
2023/03/16 08:35:46;;;;;;;5.70;1.60;;;;;;;30.59;nan;99577.81;4996984;28;20494;-72
2023/03/16 08:38:13;;;;;;;5.00;1.80;;;;;;;31.18;nan;99569.19;4996727;28;20026;-72
2023/03/16 08:40:40;;;;;;;6.10;1.60;;;;;;;31.80;nan;99567.47;5000681;28;20034;-72
2023/03/16 08:43:07;;;;;;;8.52;1.80;;;;;;;31.63;nan;99585.53;5001156;28;20022;-72
2023/03/16 08:45:32;;;;;;;7.00;1.92;;;;;;;30.91;nan;99567.47;5000862;28;20041;-72
2023/03/16 08:47:58;;;;;;;6.23;1.80;;;;;;;30.98;nan;99579.41;5000496;28;20031;-72
2023/03/16 08:50:24;;;;;;;5.68;1.80;;;;;;;30.85;nan;99573.50;5006674;28;20030;-72
2023/03/16 08:52:49;;;;;;;8.60;2.08;;;;;;;31.75;nan;99575.25;5000479;28;20030;-72
2023/03/16 08:55:15;;;;;;;6.17;1.83;;;;;;;31.93;nan;99558.84;5000834;28;20026;-72
2023/03/16 08:57:42;;;;;;;5.40;1.77;;;;;;;30.50;nan;99571.44;5008358;28;20022;-72
2023/03/16 09:00:12;;;;;;;6.80;2.17;;;;;;;29.77;nan;99573.03;5001436;28;20638;-72
2023/03/16 09:02:41;;;;;;;5.60;1.98;;;;;;;28.92;nan;99568.28;5000591;28;20046;-72
2023/03/16 09:05:13;;;;;;;7.15;1.90;;;;;;;28.62;nan;99570.09;5007910;28;20034;-72
2023/03/16 09:07:39;;;;;;;4.85;1.80;;;;;;;29.28;nan;99580.38;5000041;28;20123;-72
2023/03/16 09:10:06;;;;;;;6.20;1.80;;;;;;;28.77;nan;99572.38;5000701;28;20730;-72
2023/03/16 09:12:35;;;;;;;7.97;2.00;;;;;;;27.91;nan;99577.25;5000390;28;20033;-72
2023/03/16 09:15:01;;;;;;;5.60;1.73;;;;;;;27.67;nan;99572.16;5005988;28;20030;-72
2023/03/16 09:17:27;;;;;;;7.90;1.80;;;;;;;27.04;nan;99570.28;5005482;28;20026;-72
2023/03/16 09:19:53;;;;;;;5.15;1.90;;;;;;;27.05;nan;99561.19;5001724;28;20022;-72
2023/03/16 09:22:19;;;;;;;6.07;1.90;;;;;;;26.51;nan;99590.81;4985174;28;20034;-72
2023/03/16 09:24:45;;;;;;;7.32;2.03;;;;;;;26.51;nan;99582.72;4980537;28;20062;-72
2023/03/16 09:27:10;;;;;;;9.90;2.08;;;;;;;26.69;nan;99584.88;4980773;28;20039;-72
2023/03/16 09:29:36;;;;;;;9.87;1.60;;;;;;;27.04;nan;99567.56;4997693;28;20030;-72
2023/03/16 09:32:02;;;;;;;6.03;1.60;;;;;;;27.77;nan;99562.25;4999902;28;20057;-72
2023/03/16 09:34:28;;;;;;;4.70;1.80;;;;;;;28.27;nan;99571.44;5000057;28;20105;-72
2023/03/16 09:36:54;;;;;;;6.85;1.80;;;;;;;28.42;nan;99562.94;4999622;28;20062;-72
2023/03/16 09:39:21;;;;;;;4.93;1.67;;;;;;;27.97;nan;99572.28;5000045;28;20026;-72
2023/03/16 09:41:52;;;;;;;5.15;1.73;;;;;;;27.79;nan;99562.97;5001597;28;20018;-72
2023/03/16 09:44:30;;;;;;;6.55;1.80;;;;;;;27.27;nan;99578.28;4999706;28;20105;-72
2023/03/16 09:46:59;;;;;;;5.33;1.50;;;;;;;26.70;nan;99570.38;4999708;28;20033;-72
2023/03/16 09:49:30;;;;;;;7.05;1.80;;;;;;;26.72;nan;99563.03;5002920;28;20088;-72
2023/03/16 09:52:08;;;;;;;5.55;1.60;;;;;;;26.64;nan;99575.28;5000838;28;20041;-72
2023/03/16 09:54:51;;;;;;;4.82;1.45;;;;;;;27.00;nan;99560.72;4999466;28;20034;-72
2023/03/16 09:57:47;;;;;;;7.00;1.92;;;;;;;26.99;nan;99559.00;5004229;28;20022;-72
2023/03/16 10:00:16;;;;;;;5.77;1.70;;;;;;;27.21;nan;99558.03;4999948;28;20022;-72
2023/03/16 10:02:47;;;;;;;6.97;1.70;;;;;;;27.80;nan;99561.13;4999549;28;20131;-71
2023/03/16 10:05:20;;;;;;;5.85;1.55;;;;;;;28.54;nan;99556.38;5002847;28;20402;-72
2023/03/16 10:08:01;;;;;;;8.70;1.50;;;;;;;29.30;nan;99551.28;4998878;28;20083;-72
2023/03/16 10:10:46;;;;;;;5.85;1.63;;;;;;;29.35;nan;99562.56;4998206;28;20022;-72
2023/03/16 10:13:36;;;;;;;7.53;1.60;;;;;;;28.82;nan;99558.44;4999317;28;20030;-72
2023/03/16 10:16:11;;;;;;;6.18;1.70;;;;;;;28.32;nan;99552.06;5010706;28;20022;-72
2023/03/16 10:18:43;;;;;;;4.78;1.50;;;;;;;28.05;nan;99542.72;4989345;28;20034;-72
2023/03/16 10:21:17;;;;;;;7.25;1.80;;;;;;;27.78;nan;99552.28;5000287;28;20164;-72
2023/03/16 10:23:45;;;;;;;5.75;1.70;;;;;;;28.28;nan;99545.22;4998850;28;20041;-72
2023/03/16 10:26:41;;;;;;;6.37;1.90;;;;;;;27.48;nan;99552.09;4998888;28;20022;-71
2023/03/16 10:29:11;;;;;;;6.38;1.55;;;;;;;27.80;nan;99561.97;4998035;28;20127;-72
2023/03/16 10:31:40;;;;;;;5.75;1.60;;;;;;;28.17;nan;99532.66;4998619;28;20379;-72
2023/03/16 10:34:07;;;;;;;5.97;1.45;;;;;;;27.74;nan;99548.16;4998590;28;20018;-71
2023/03/16 10:36:35;;;;;;;7.75;1.70;;;;;;;27.89;nan;99551.34;4998586;28;20117;-72
2023/03/16 10:39:12;;;;;;;5.47;1.47;;;;;;;27.93;nan;99559.03;4998557;28;20026;-72
2023/03/16 10:41:44;;;;;;;5.40;1.60;;;;;;;27.59;nan;99555.72;5000391;28;20018;-72
2023/03/16 10:44:20;;;;;;;5.80;1.35;;;;;;;27.46;nan;99559.50;4985132;28;20022;-72
2023/03/16 10:46:57;;;;;;;5.50;1.40;;;;;;;27.89;nan;99551.34;4998685;28;20395;-72
2023/03/16 10:49:26;;;;;;;4.68;1.38;;;;;;;27.86;nan;99540.81;4999997;28;20425;-72
2023/03/16 10:51:54;;;;;;;7.23;1.80;;;;;;;27.19;nan;99566.28;5000400;28;20022;-72
2023/03/16 10:54:34;;;;;;;5.93;1.42;;;;;;;27.02;nan;99565.03;4998344;28;20026;-72
2023/03/16 10:57:12;;;;;;;4.40;1.40;;;;;;;27.23;nan;99551.50;5000669;28;20157;-72
2023/03/16 10:59:37;;;;;;;5.72;1.50;;;;;;;27.57;nan;99541.50;5003175;28;20101;-72
2023/03/16 11:02:19;;;;;;;6.70;1.70;;;;;;;27.23;nan;99545.22;4998217;28;20133;-72
2023/03/16 11:04:46;;;;;;;5.10;1.50;;;;;;;27.56;nan;99540.66;4999670;28;20018;-72
2023/03/16 11:07:22;;;;;;;5.72;1.40;;;;;;;27.77;nan;99543.31;4997956;28;20033;-72
2023/03/16 11:09:51;;;;;;;6.43;1.52;;;;;;;27.87;nan;99521.72;4998117;28;20111;-72
2023/03/16 11:12:30;;;;;;;6.87;1.40;;;;;;;27.91;nan;99527.72;4998196;28;20022;-72
2023/03/16 11:15:12;;;;;;;4.93;1.40;;;;;;;28.35;nan;99524.72;4989084;28;20111;-72
2023/03/16 11:17:44;;;;;;;7.60;1.80;;;;;;;28.77;nan;99524.47;5001987;28;20058;-72
2023/03/16 11:20:22;;;;;;;7.97;1.30;;;;;;;27.77;nan;99535.19;5000171;28;20030;-72
2023/03/16 11:22:48;;;;;;;6.47;1.40;;;;;;;27.59;nan;99531.41;4997949;28;20046;-72
2023/03/16 11:25:20;;;;;;;6.07;1.30;;;;;;;27.05;nan;99529.63;4996626;28;20060;-72
2023/03/16 11:27:52;;;;;;;5.72;1.58;;;;;;;27.78;nan;99528.78;4998076;28;20026;-72
2023/03/16 11:30:39;;;;;;;5.43;1.60;;;;;;;27.69;nan;99524.19;4997979;28;20483;-72
2023/03/16 11:33:12;;;;;;;5.95;1.40;;;;;;;27.41;nan;99531.13;4998100;28;20030;-72
2023/03/16 11:36:13;;;;;;;5.07;1.40;;;;;;;27.30;nan;99524.81;4997692;28;20026;-72
2023/03/16 11:39:13;;;;;;;4.50;1.30;;;;;;;27.16;nan;99539.53;4990904;28;20038;-72
2023/03/16 11:41:57;;;;;;;6.25;1.40;;;;;;;27.85;nan;99523.69;4999670;28;20030;-72
2023/03/16 11:44:40;;;;;;;8.93;1.58;;;;;;;27.45;nan;99521.75;4985464;28;20034;-72
2023/03/16 11:47:25;;;;;;;4.85;1.40;;;;;;;27.42;nan;99522.91;4997599;28;20018;-72
2023/03/16 11:50:00;;;;;;;5.97;1.80;;;;;;;27.07;nan;99529.47;5002908;28;20506;-72
2023/03/16 11:53:02;;;;;;;8.82;1.55;;;;;;;26.57;nan;99539.00;4996153;28;20030;-72
2023/03/16 11:56:05;;;;;;;5.03;1.40;;;;;;;25.92;nan;99538.81;4997808;28;20041;-72
2023/03/16 11:58:36;;;;;;;4.95;1.50;;;;;;;25.42;nan;99537.28;5007810;28;20061;-72